Time;durP1;ratioP1;P1;durP2;ratioP2;P2;SDS_P1;SDS_P2;PMS_P1;PMS_P2;Temp;Humidity;BMP_temperature;BMP_pressure;BME280_temperature;BME280_humidity;BME280_pressure;Samples;Min_cycle;Max_cycle;Signal;HPM_P1;HPM_P2
2023/01/10 00:01:37;;;;;;;19.10;17.40;;;;;;;20.89;34.41;94216.38;6176705;28;104406;-78
2023/01/10 00:04:41;;;;;;;18.73;17.13;;;;;;;21.12;34.37;94245.41;6175871;28;103173;-77
2023/01/10 00:07:46;;;;;;;18.77;17.13;;;;;;;21.11;34.29;94239.31;6175274;28;103293;-78
2023/01/10 00:10:50;;;;;;;17.17;15.67;;;;;;;20.88;34.06;94204.16;6169860;28;106062;-77
2023/01/10 00:13:52;;;;;;;16.70;15.30;;;;;;;21.05;34.16;94207.91;6176582;28;105888;-77
2023/01/10 00:16:56;;;;;;;16.70;15.20;;;;;;;20.21;33.66;94057.88;6176380;28;102993;-77
2023/01/10 00:19:59;;;;;;;16.70;15.30;;;;;;;21.05;34.05;94198.03;6167344;28;104914;-79
2023/01/10 00:23:04;;;;;;;16.27;14.60;;;;;;;21.19;34.09;94211.13;6172216;28;102702;-77
2023/01/10 00:26:08;;;;;;;16.30;14.93;;;;;;;21.19;33.97;94230.53;6173483;28;105238;-77
2023/01/10 00:29:11;;;;;;;15.03;13.80;;;;;;;21.13;34.19;94231.00;6171059;28;102600;-78
2023/01/10 00:32:15;;;;;;;15.30;14.00;;;;;;;21.20;34.04;94250.72;6162826;28;102804;-78
2023/01/10 00:35:18;;;;;;;15.60;14.30;;;;;;;20.98;34.01;94208.34;6171351;28;105843;-77
2023/01/10 00:38:24;;;;;;;15.60;14.20;;;;;;;21.07;34.38;94206.47;6170244;28;106958;-78
2023/01/10 00:44:50;;;;;;;14.80;13.50;;;;;;;20.80;34.05;94159.75;6163185;28;104782;-77
2023/01/10 00:47:53;;;;;;;13.87;12.70;;;;;;;20.82;33.89;94162.09;6170917;28;105732;-77
2023/01/10 00:50:56;;;;;;;13.97;12.80;;;;;;;20.91;34.16;94154.88;6171718;28;103081;-77
2023/01/10 00:54:01;;;;;;;14.57;13.37;;;;;;;21.15;34.14;94200.31;6168051;28;103460;-77
2023/01/10 00:57:04;;;;;;;13.50;12.40;;;;;;;20.99;34.39;94188.63;6167350;28;103449;-77
2023/01/10 01:00:10;;;;;;;14.20;13.00;;;;;;;20.97;34.06;94198.81;6171300;28;106856;-77
2023/01/10 01:03:14;;;;;;;13.40;12.23;;;;;;;21.13;34.29;94183.91;6171065;28;103371;-78
2023/01/10 01:06:17;;;;;;;12.90;11.80;;;;;;;21.12;34.30;94200.97;6164317;28;104446;-77
2023/01/10 01:09:22;;;;;;;13.33;12.20;;;;;;;21.14;34.13;94190.00;6171771;28;103399;-77
2023/01/10 01:12:26;;;;;;;12.67;11.57;;;;;;;21.13;34.31;94180.47;6172166;28;106600;-77
2023/01/10 01:15:29;;;;;;;11.60;10.60;;;;;;;21.06;34.33;94172.22;6171854;28;102584;-76
2023/01/10 01:18:34;;;;;;;13.23;12.03;;;;;;;20.77;34.11;94138.34;6162922;28;104153;-77
2023/01/10 01:21:38;;;;;;;12.53;11.43;;;;;;;21.12;34.23;94189.53;6169833;28;103122;-77
2023/01/10 01:24:44;;;;;;;11.60;10.70;;;;;;;21.11;34.20;94177.34;6170205;28;106256;-77
2023/01/10 01:27:47;;;;;;;12.50;11.40;;;;;;;20.83;34.10;94163.66;6170611;28;105972;-78
2023/01/10 01:30:50;;;;;;;11.73;10.73;;;;;;;20.83;34.19;94153.03;6162394;28;103323;-77
2023/01/10 01:33:54;;;;;;;12.87;11.73;;;;;;;21.10;34.02;94210.38;6171709;28;103058;-77
2023/01/10 01:36:57;;;;;;;12.03;11.03;;;;;;;21.00;34.19;94190.19;6171667;28;103013;-76
2023/01/10 01:40:02;;;;;;;11.63;10.63;;;;;;;20.99;34.15;94177.97;6168758;28;102789;-77
2023/01/10 01:43:06;;;;;;;10.93;9.93;;;;;;;21.08;34.20;94185.97;6167607;28;104446;-77
2023/01/10 01:46:09;;;;;;;11.07;10.17;;;;;;;21.01;34.35;94164.41;6172150;28;105666;-77
2023/01/10 01:49:16;;;;;;;11.13;10.13;;;;;;;20.85;34.30;94151.63;6171007;28;103205;-77
2023/01/10 01:52:27;;;;;;;10.73;9.73;;;;;;;21.01;34.08;94180.34;6163959;28;103169;-77
2023/01/10 01:55:34;;;;;;;11.53;10.50;;;;;;;20.92;34.27;94153.78;6171828;28;103526;-76
2023/01/10 01:58:44;;;;;;;10.80;9.90;;;;;;;21.06;34.22;94173.00;6171090;28;104363;-77
2023/01/10 02:01:51;;;;;;;10.23;9.43;;;;;;;20.87;34.29;94143.31;6170839;28;105205;-77
2023/01/10 02:04:57;;;;;;;9.90;9.03;;;;;;;20.79;34.38;94110.34;6162988;28;104395;-77
2023/01/10 02:08:02;;;;;;;10.17;9.37;;;;;;;21.07;34.04;94168.44;6166204;28;106092;-77
2023/01/10 02:11:09;;;;;;;10.50;9.60;;;;;;;21.06;34.22;94151.72;6166065;28;105963;-77
2023/01/10 02:14:15;;;;;;;9.40;8.60;;;;;;;21.07;34.27;94136.53;6160364;28;103110;-77
2023/01/10 02:17:18;;;;;;;10.57;9.67;;;;;;;20.59;34.05;94048.03;6160557;28;102908;-77
2023/01/10 02:20:23;;;;;;;9.93;9.13;;;;;;;21.07;34.11;94120.56;6161101;28;103155;-77
2023/01/10 02:24:03;;;;;;;9.30;8.50;;;;;;;21.07;33.89;94132.00;6163645;28;103093;-77
2023/01/10 02:27:25;;;;;;;9.87;8.87;;;;;;;21.08;34.25;94124.78;6145120;28;105161;-77
2023/01/10 02:30:52;;;;;;;9.17;8.37;;;;;;;21.07;34.21;94131.22;6165463;28;105693;-82
2023/01/10 02:34:04;;;;;;;9.37;8.50;;;;;;;21.07;34.24;94115.25;6166547;28;105198;-81
2023/01/10 02:37:13;;;;;;;9.37;8.57;;;;;;;21.06;34.04;94108.38;6162949;28;103132;-80
2023/01/10 02:40:24;;;;;;;9.17;8.37;;;;;;;21.05;34.04;94096.97;6166485;28;102853;-83
2023/01/10 02:43:35;;;;;;;8.70;8.00;;;;;;;20.93;34.30;94099.50;6172953;28;103316;-83
2023/01/10 02:46:39;;;;;;;8.40;7.70;;;;;;;21.06;34.05;94127.00;6172241;28;104156;-83
2023/01/10 02:49:45;;;;;;;9.63;8.87;;;;;;;21.03;34.23;94107.13;6169267;28;102831;-82
2023/01/10 02:52:49;;;;;;;8.50;7.80;;;;;;;21.04;33.99;94119.31;6171573;28;102832;-82
2023/01/10 02:56:20;;;;;;;8.90;8.10;;;;;;;20.92;33.81;94105.91;6172318;28;107514;-83
2023/01/10 02:59:42;;;;;;;8.77;8.07;;;;;;;21.03;34.25;94125.72;6146638;28;103900;-82
2023/01/10 03:03:07;;;;;;;8.83;8.07;;;;;;;20.87;33.85;94106.09;6145846;28;102972;-82
2023/01/10 03:06:26;;;;;;;8.87;8.07;;;;;;;21.05;34.17;94128.09;6153479;28;102931;-82
2023/01/10 03:09:35;;;;;;;9.10;8.30;;;;;;;20.97;34.22;94110.25;6172989;28;104506;-82
2023/01/10 03:12:44;;;;;;;8.27;7.47;;;;;;;20.55;33.97;94033.06;6170320;28;103172;-83
2023/01/10 03:15:50;;;;;;;9.47;8.67;;;;;;;20.79;34.20;94075.78;6172312;28;103382;-81
2023/01/10 03:18:59;;;;;;;8.70;8.00;;;;;;;21.04;33.69;94113.22;6171307;28;104184;-82
2023/01/10 03:22:05;;;;;;;8.63;8.00;;;;;;;21.03;33.63;94130.28;6170883;28;104416;-80
2023/01/10 03:25:13;;;;;;;8.93;8.23;;;;;;;20.30;33.87;94008.16;6166736;28;103456;-82
2023/01/10 03:28:22;;;;;;;8.40;7.70;;;;;;;21.03;33.72;94130.28;6170780;28;106616;-82
2023/01/10 03:31:32;;;;;;;9.10;8.30;;;;;;;20.31;33.66;94025.66;6170420;28;102807;-81
2023/01/10 03:34:36;;;;;;;8.50;7.80;;;;;;;20.48;33.62;94062.78;6166545;28;103176;-82
2023/01/10 03:37:49;;;;;;;9.93;8.33;;;;;;;20.87;33.80;94112.19;6169937;28;103492;-82
2023/01/10 03:40:59;;;;;;;9.50;8.70;;;;;;;20.85;33.88;94110.97;6159671;28;106366;-82
2023/01/10 03:47:40;;;;;;;9.60;8.77;;;;;;;21.03;34.07;94148.88;6141332;28;103233;-82
2023/01/10 03:50:45;;;;;;;9.33;8.50;;;;;;;21.01;33.72;94143.91;6145559;28;103256;-81
2023/01/10 03:53:50;;;;;;;9.07;8.37;;;;;;;21.03;33.81;94148.88;6145547;28;103109;-80
2023/01/10 03:56:53;;;;;;;9.37;8.50;;;;;;;;;;6148521;28;102724;-81
2023/01/10 03:59:58;;;;;;;9.17;8.43;;;;;;;21.01;33.63;94129.81;6147651;28;103032;-81
2023/01/10 04:03:02;;;;;;;8.83;8.13;;;;;;;21.03;33.81;94127.63;6148872;28;104344;-81
2023/01/10 04:06:06;;;;;;;9.30;8.60;;;;;;;20.93;33.59;94078.22;6150003;28;106743;-84
2023/01/10 04:09:14;;;;;;;8.93;8.23;;;;;;;21.02;34.03;94080.84;6157253;28;104060;-83
2023/01/10 04:12:17;;;;;;;9.77;8.97;;;;;;;21.08;33.77;94068.94;6173176;28;102944;-80
2023/01/10 04:15:20;;;;;;;9.27;8.47;;;;;;;20.35;34.07;93962.06;6173398;28;103009;-82
2023/01/10 04:18:24;;;;;;;9.60;8.70;;;;;;;20.82;34.21;94037.91;6174403;28;106123;-79
2023/01/10 04:21:28;;;;;;;13.20;11.97;;;;;;;20.41;32.83;94061.72;6166468;28;105367;-81
2023/01/10 04:24:33;;;;;;;10.80;10.00;;;;;;;19.82;32.82;94045.59;6174386;28;103044;-81
2023/01/10 04:27:37;;;;;;;10.90;9.90;;;;;;;19.95;32.97;94098.53;6172746;28;103089;-81
2023/01/10 04:30:40;;;;;;;11.57;10.57;;;;;;;19.69;32.56;94111.84;6172442;28;103984;-79
2023/01/10 04:33:45;;;;;;;12.70;11.60;;;;;;;19.81;32.33;94139.59;6161470;28;106657;-78
2023/01/10 04:36:50;;;;;;;11.43;10.53;;;;;;;19.63;32.16;94125.56;6172640;28;103300;-78
2023/01/10 04:39:55;;;;;;;11.57;10.57;;;;;;;19.62;32.15;94153.97;6171121;28;102868;-78
2023/01/10 04:42:58;;;;;;;12.50;11.50;;;;;;;19.61;31.80;94152.41;6157050;28;103390;-77
2023/01/10 04:46:01;;;;;;;13.17;12.00;;;;;;;19.57;31.78;94148.03;6148232;28;103354;-78
2023/01/10 04:49:06;;;;;;;12.80;11.70;;;;;;;19.31;32.10;94121.44;6149129;28;103313;-79
2023/01/10 04:52:10;;;;;;;11.90;10.83;;;;;;;19.47;31.95;94119.91;6167113;28;102737;-84
2023/01/10 04:55:15;;;;;;;12.83;11.73;;;;;;;20.01;31.95;94141.66;6166704;28;102690;-83
2023/01/10 04:58:19;;;;;;;13.10;12.00;;;;;;;20.05;31.71;94131.94;6173383;28;102996;-82
2023/01/10 05:01:25;;;;;;;12.43;11.33;;;;;;;20.02;31.70;94125.41;6168215;28;103249;-79
2023/01/10 05:04:29;;;;;;;11.80;10.70;;;;;;;19.91;31.64;94118.06;6172847;28;104400;-84
2023/01/10 05:07:33;;;;;;;12.40;11.30;;;;;;;20.05;32.18;94137.25;6167686;28;103083;-84
2023/01/10 05:10:37;;;;;;;11.50;10.40;;;;;;;20.18;33.03;94106.31;6172022;28;102884;-83
2023/01/10 05:13:41;;;;;;;13.47;12.37;;;;;;;19.91;32.31;94064.97;6159436;28;103050;-84
2023/01/10 05:16:44;;;;;;;11.40;10.30;;;;;;;20.47;32.00;94087.00;6167245;28;105472;-80
2023/01/10 05:19:48;;;;;;;10.77;9.87;;;;;;;20.67;31.34;94070.38;6166151;28;104927;-81
2023/01/10 05:22:51;;;;;;;10.47;9.50;;;;;;;20.78;31.75;94082.19;6166271;28;104545;-79
2023/01/10 05:25:56;;;;;;;10.23;9.27;;;;;;;20.82;31.57;94080.44;6173088;28;102945;-78
2023/01/10 05:29:00;;;;;;;10.13;9.20;;;;;;;20.76;32.21;94084.41;6168693;28;102879;-78
2023/01/10 05:32:03;;;;;;;9.40;8.50;;;;;;;20.92;32.03;94098.72;6162278;28;102803;-78
2023/01/10 05:35:07;;;;;;;9.57;8.77;;;;;;;20.92;32.01;94103.25;6147177;28;102904;-79
2023/01/10 05:38:10;;;;;;;9.33;8.53;;;;;;;21.00;32.42;94110.38;6148319;28;104314;-85
2023/01/10 05:41:15;;;;;;;9.77;7.90;;;;;;;21.11;32.00;94102.84;6151597;28;104278;-81
2023/01/10 05:44:18;;;;;;;9.10;8.40;;;;;;;20.86;32.06;94085.94;6173256;28;103291;-84
2023/01/10 05:47:24;;;;;;;8.73;8.03;;;;;;;21.23;31.81;94120.78;6172289;28;106043;-82
2023/01/10 05:50:27;;;;;;;8.80;8.10;;;;;;;20.98;31.64;94079.91;6171947;28;104133;-82
2023/01/10 05:53:31;;;;;;;9.90;8.80;;;;;;;21.10;31.51;94088.78;6164681;28;103015;-79
2023/01/10 05:56:37;;;;;;;8.63;7.97;;;;;;;21.33;31.71;94101.78;6172248;28;105241;-82
2023/01/10 05:59:42;;;;;;;8.10;7.40;;;;;;;21.05;31.54;94048.31;6172417;28;102994;-81
2023/01/10 06:02:45;;;;;;;8.80;8.00;;;;;;;21.18;31.58;94095.16;6144505;28;103552;-81
2023/01/10 06:05:48;;;;;;;8.60;7.80;;;;;;;21.31;31.33;94110.09;6143693;28;106596;-80
2023/01/10 06:08:54;;;;;;;7.97;7.27;;;;;;;21.39;31.45;94111.16;6147861;28;103641;-81
2023/01/10 06:11:59;;;;;;;7.77;7.07;;;;;;;20.60;31.02;93995.66;6162580;28;104990;-81
2023/01/10 06:15:03;;;;;;;8.27;7.47;;;;;;;21.30;31.16;94097.09;6140231;28;104634;-80
2023/01/10 06:18:07;;;;;;;8.30;7.57;;;;;;;21.25;31.44;94095.41;6146081;28;102548;-79
2023/01/10 06:21:14;;;;;;;8.80;8.00;;;;;;;21.42;31.59;94118.47;6159661;28;103970;-81
2023/01/10 06:24:17;;;;;;;8.70;7.80;;;;;;;21.37;31.43;94108.81;6172787;28;102659;-81
2023/01/10 06:27:22;;;;;;;8.43;7.60;;;;;;;21.20;31.11;94090.31;6165053;28;102979;-85
2023/01/10 06:30:25;;;;;;;8.10;7.50;;;;;;;21.24;31.34;94093.88;6169281;28;102666;-85
2023/01/10 06:33:28;;;;;;;8.30;7.60;;;;;;;20.89;31.50;94042.72;6166616;28;104515;-83
2023/01/10 06:36:32;;;;;;;7.93;7.23;;;;;;;21.19;31.52;94086.88;6175349;28;102860;-83
2023/01/10 06:39:35;;;;;;;8.30;7.50;;;;;;;21.41;31.76;94120.38;6161912;28;102771;-82
2023/01/10 06:42:42;;;;;;;7.80;7.10;;;;;;;21.14;31.43;94073.72;6164963;28;106889;-82
2023/01/10 06:45:45;;;;;;;7.17;6.57;;;;;;;21.29;31.41;94098.22;6167948;28;105190;-82
2023/01/10 06:48:48;;;;;;;7.53;6.90;;;;;;;21.01;31.31;94058.00;6158972;28;103088;-81
2023/01/10 06:51:51;;;;;;;7.43;6.83;;;;;;;21.18;31.56;94077.31;6148000;28;104869;-82
2023/01/10 06:54:54;;;;;;;7.50;6.90;;;;;;;21.23;31.59;94087.00;6166968;28;106251;-83
2023/01/10 06:58:00;;;;;;;7.00;6.40;;;;;;;21.33;31.82;94099.91;6167299;28;103707;-82
2023/01/10 07:01:04;;;;;;;6.50;6.00;;;;;;;21.35;31.26;94095.06;6155476;28;102941;-82
2023/01/10 07:04:07;;;;;;;7.60;7.00;;;;;;;21.26;31.54;94082.91;6165034;28;105261;-82
2023/01/10 07:07:10;;;;;;;6.67;6.17;;;;;;;21.13;31.61;94064.19;6166469;28;103024;-82
2023/01/10 07:10:14;;;;;;;6.80;6.20;;;;;;;21.29;31.69;94074.25;6165735;28;103599;-84
2023/01/10 07:13:18;;;;;;;7.63;7.00;;;;;;;21.40;31.50;94096.75;6157527;28;102851;-80
2023/01/10 07:16:21;;;;;;;8.33;7.47;;;;;;;21.24;32.38;94083.22;6166590;28;103538;-81
2023/01/10 07:19:25;;;;;;;8.10;7.50;;;;;;;21.20;32.45;94066.34;6166575;28;106063;-81
2023/01/10 07:22:28;;;;;;;8.20;7.50;;;;;;;21.37;32.07;94092.84;6156198;28;106383;-80
2023/01/10 07:25:31;;;;;;;8.10;7.40;;;;;;;21.37;32.10;94090.19;6136741;28;102766;-80
2023/01/10 07:28:36;;;;;;;7.47;6.90;;;;;;;21.22;31.83;94069.47;6143626;28;102738;-79
2023/01/10 07:31:39;;;;;;;8.23;7.53;;;;;;;21.15;32.52;94045.25;6145055;28;103374;-83
2023/01/10 07:34:43;;;;;;;7.73;7.10;;;;;;;21.14;32.32;94052.44;6138618;28;106928;-82
2023/01/10 07:37:46;;;;;;;8.90;8.07;;;;;;;20.84;31.99;94006.47;6147833;28;105337;-80
2023/01/10 07:40:50;;;;;;;7.10;6.50;;;;;;;21.34;32.07;94066.88;6156517;28;106726;-82
2023/01/10 07:43:55;;;;;;;6.43;5.93;;;;;;;21.46;32.55;94090.88;6170538;28;103169;-84
2023/01/10 07:46:58;;;;;;;7.40;6.80;;;;;;;21.51;32.58;94082.72;6164066;28;105409;-85
2023/01/10 07:50:01;;;;;;;7.77;7.17;;;;;;;21.54;32.70;94067.19;6170218;28;103241;-85
2023/01/10 07:53:06;;;;;;;7.20;6.50;;;;;;;21.46;32.44;94063.50;6171876;28;103319;-85
2023/01/10 07:56:10;;;;;;;7.13;6.53;;;;;;;21.48;32.70;94067.38;6170998;28;103567;-83
2023/01/10 07:59:14;;;;;;;6.90;6.20;;;;;;;21.26;32.66;94029.69;6165696;28;105052;-82
2023/01/10 08:02:17;;;;;;;7.17;6.47;;;;;;;21.55;33.08;94071.41;6166732;28;103282;-82
2023/01/10 08:05:20;;;;;;;6.80;6.30;;;;;;;21.62;33.18;94071.66;6147536;28;103184;-83
2023/01/10 08:08:24;;;;;;;7.97;7.27;;;;;;;21.35;32.92;94041.06;6140554;28;102912;-83
2023/01/10 08:11:27;;;;;;;6.40;5.90;;;;;;;21.58;33.09;94071.53;6145975;28;104582;-80
2023/01/10 08:14:32;;;;;;;7.33;6.73;;;;;;;21.37;33.33;94034.28;6144963;28;103133;-84
2023/01/10 08:17:35;;;;;;;6.70;6.10;;;;;;;21.17;32.90;94008.44;6145482;28;105944;-82
2023/01/10 08:20:38;;;;;;;6.33;5.83;;;;;;;21.45;33.36;94057.38;6141823;28;105087;-80
2023/01/10 08:23:41;;;;;;;6.53;6.03;;;;;;;20.98;33.01;93995.56;6168344;28;107251;-79
2023/01/10 08:26:44;;;;;;;5.97;5.53;;;;;;;21.43;32.93;94061.47;6169412;28;102869;-80
2023/01/10 08:29:49;;;;;;;6.20;5.70;;;;;;;21.32;33.13;94026.50;6167377;28;103325;-79
2023/01/10 08:32:52;;;;;;;5.90;5.40;;;;;;;21.40;32.87;94035.53;6153790;28;103258;-79
2023/01/10 08:35:55;;;;;;;6.70;6.10;;;;;;;21.41;33.23;94029.09;6144190;28;102937;-80
2023/01/10 08:38:58;;;;;;;6.07;5.57;;;;;;;21.39;33.27;94033.97;6143789;28;106075;-80
2023/01/10 08:42:02;;;;;;;6.60;6.10;;;;;;;21.39;33.37;94023.31;6157823;28;106461;-79
2023/01/10 08:45:08;;;;;;;6.60;6.10;;;;;;;21.38;32.91;94013.78;6163758;28;103193;-79
2023/01/10 08:48:12;;;;;;;7.00;6.50;;;;;;;21.36;33.12;94006.13;6168570;28;103090;-80
2023/01/10 08:51:15;;;;;;;5.87;5.37;;;;;;;21.23;33.21;93991.22;6167995;28;103817;-80
2023/01/10 08:54:18;;;;;;;6.13;5.63;;;;;;;21.36;32.98;94005.34;6158440;28;103113;-81
2023/01/10 08:57:21;;;;;;;7.40;6.70;;;;;;;21.36;32.79;94005.34;6168242;28;103544;-80
2023/01/10 09:00:26;;;;;;;6.70;6.20;;;;;;;21.35;33.08;93993.16;6144742;28;103415;-81
2023/01/10 09:03:29;;;;;;;6.90;6.40;;;;;;;21.19;33.31;93969.81;6152560;28;106528;-81
2023/01/10 09:06:32;;;;;;;6.87;6.27;;;;;;;21.35;33.29;94003.78;6160469;28;106355;-80
2023/01/10 09:09:36;;;;;;;6.27;5.77;;;;;;;21.22;33.11;93981.66;6168849;28;105339;-82
2023/01/10 09:12:54;;;;;;;6.60;6.10;;;;;;;21.32;32.92;93991.13;6166705;28;104450;-80
2023/01/10 09:16:00;;;;;;;7.17;6.57;;;;;;;21.08;32.83;93965.19;6164791;28;103264;-80
2023/01/10 09:19:03;;;;;;;7.10;6.50;;;;;;;21.31;32.78;93995.66;6163351;28;104086;-82
2023/01/10 09:22:06;;;;;;;6.30;5.80;;;;;;;21.27;32.96;93994.75;6166430;28;104075;-81
2023/01/10 09:25:10;;;;;;;6.50;6.00;;;;;;;21.31;32.93;93981.59;6147013;28;102850;-79
2023/01/10 09:28:13;;;;;;;6.50;6.00;;;;;;;21.14;33.12;93950.56;6140479;28;103196;-80
2023/01/10 09:31:18;;;;;;;6.53;6.03;;;;;;;21.16;32.96;93965.09;6155882;28;103862;-79
2023/01/10 09:34:23;;;;;;;6.40;5.80;;;;;;;21.18;32.73;93967.47;6166754;28;103233;-80
2023/01/10 09:37:26;;;;;;;5.77;5.37;;;;;;;20.95;33.30;93918.31;6167747;28;102913;-80
2023/01/10 09:40:39;;;;;;;6.60;6.10;;;;;;;21.32;33.02;93967.16;6151647;28;106843;-80
2023/01/10 09:43:54;;;;;;;6.37;5.87;;;;;;;21.25;33.11;93949.09;6142788;28;104075;-79
2023/01/10 09:47:05;;;;;;;6.90;6.33;;;;;;;21.16;33.01;93924.44;6142444;28;103072;-81
2023/01/10 09:50:32;;;;;;;7.10;6.50;;;;;;;21.25;32.96;93930.47;6138063;28;103138;-80
2023/01/10 09:53:41;;;;;;;6.87;6.27;;;;;;;21.37;33.12;93946.47;6151594;28;103095;-85
2023/01/10 09:56:45;;;;;;;6.53;6.03;;;;;;;20.93;33.12;93876.88;6171172;28;103320;-86
2023/01/10 09:59:52;;;;;;;7.07;6.40;;;;;;;21.37;33.18;93937.72;6169231;28;103590;-84
2023/01/10 10:02:57;;;;;;;6.07;5.57;;;;;;;21.01;33.27;93885.91;6137286;28;103067;-84
2023/01/10 10:06:00;;;;;;;6.40;5.90;;;;;;;21.36;33.16;93934.28;6167213;28;105273;-82
2023/01/10 10:09:15;;;;;;;7.33;6.73;;;;;;;21.37;32.96;93917.22;6167866;28;103130;-83
2023/01/10 10:12:28;;;;;;;7.27;6.67;;;;;;;21.28;32.73;93905.84;6146700;28;102577;-85
2023/01/10 10:15:39;;;;;;;6.57;6.00;;;;;;;21.36;33.05;93920.19;6138054;28;103199;-84
2023/01/10 10:18:55;;;;;;;6.97;6.30;;;;;;;21.35;33.05;93924.75;6144494;28;103374;-83
2023/01/10 10:22:09;;;;;;;7.07;6.40;;;;;;;21.10;33.10;93885.84;6143803;28;103215;-84
2023/01/10 10:25:31;;;;;;;6.50;6.00;;;;;;;21.36;32.85;93920.97;6135419;28;102797;-85
2023/01/10 10:29:00;;;;;;;7.00;6.40;;;;;;;21.23;33.22;93910.63;6143424;28;103390;-86
2023/01/10 10:32:25;;;;;;;6.87;6.27;;;;;;;21.16;33.28;93887.97;6143788;28;105118;-84
2023/01/10 10:35:33;;;;;;;7.20;6.60;;;;;;;21.30;32.96;93903.63;6140721;28;103840;-85
2023/01/10 10:38:39;;;;;;;6.83;6.23;;;;;;;21.10;33.04;93869.88;6139830;28;105159;-86
2023/01/10 10:41:46;;;;;;;6.50;6.00;;;;;;;21.32;33.09;93909.41;6159964;28;106250;-87
2023/01/10 10:44:53;;;;;;;7.20;6.50;;;;;;;20.05;32.85;93714.25;6151658;28;105294;-88
2023/01/10 10:48:03;;;;;;;7.13;6.60;;;;;;;21.28;32.90;93903.19;6135786;28;103678;-86
2023/01/10 10:51:14;;;;;;;7.73;7.10;;;;;;;21.13;33.11;93863.91;6153962;28;103044;-86
2023/01/10 10:54:17;;;;;;;7.67;7.07;;;;;;;21.28;33.09;93887.22;6168902;28;103157;-87
2023/01/10 10:57:25;;;;;;;7.60;7.00;;;;;;;21.27;33.35;93879.56;6169858;28;102815;-87
2023/01/10 11:00:29;;;;;;;6.70;6.10;;;;;;;21.20;33.46;93890.75;6158207;28;107538;-88
2023/01/10 11:03:40;;;;;;;7.30;6.70;;;;;;;21.14;33.07;93884.06;6168087;28;104352;-84
2023/01/10 11:06:47;;;;;;;7.23;6.63;;;;;;;21.26;33.10;93892.09;6169546;28;106116;-84
2023/01/10 11:09:56;;;;;;;7.50;6.80;;;;;;;21.24;33.26;93870.38;6161773;28;102793;-85
2023/01/10 11:13:02;;;;;;;7.60;7.00;;;;;;;21.27;33.18;93864.38;6143866;28;103076;-85
2023/01/10 11:16:06;;;;;;;7.60;6.90;;;;;;;20.85;33.13;93807.84;6169764;28;104148;-87
2023/01/10 11:19:19;;;;;;;7.60;7.00;;;;;;;21.15;33.15;93859.81;6169020;28;103508;-86
2023/01/10 11:22:24;;;;;;;7.30;6.70;;;;;;;21.29;32.94;93872.81;6158675;28;103739;-84
2023/01/10 11:25:28;;;;;;;7.50;6.90;;;;;;;21.16;32.82;93852.59;6167900;28;103814;-87
2023/01/10 11:28:34;;;;;;;6.67;6.07;;;;;;;21.08;33.00;93840.94;6168809;28;103282;-86
2023/01/10 11:31:38;;;;;;;7.03;6.43;;;;;;;21.27;33.50;93866.28;6152335;28;102721;-84
2023/01/10 11:34:48;;;;;;;7.57;6.97;;;;;;;21.06;33.24;93842.41;6148952;28;103317;-85
2023/01/10 11:38:03;;;;;;;7.20;6.50;;;;;;;21.20;33.39;93854.28;6167507;28;103428;-84
2023/01/10 11:41:22;;;;;;;7.40;6.80;;;;;;;20.93;33.00;93823.69;6166428;28;105271;-87
2023/01/10 11:44:28;;;;;;;8.17;7.50;;;;;;;21.16;33.18;93847.28;6160727;28;103559;-82
2023/01/10 11:47:33;;;;;;;6.90;6.40;;;;;;;21.30;33.25;93863.72;6169037;28;104585;-87
2023/01/10 11:50:50;;;;;;;6.97;6.40;;;;;;;21.21;33.10;93857.72;6159812;28;103099;-86
2023/01/10 11:53:59;;;;;;;7.00;6.40;;;;;;;21.18;33.12;93851.19;6149862;28;103574;-81
2023/01/10 11:57:07;;;;;;;7.43;6.73;;;;;;;21.21;33.49;93858.50;6156951;28;102698;-80
2023/01/10 12:00:12;;;;;;;7.20;6.60;;;;;;;21.30;33.37;93862.94;6164423;28;103052;-82
2023/01/10 12:03:21;;;;;;;7.33;6.73;;;;;;;21.06;33.11;93816.56;6163905;28;103299;-81
2023/01/10 12:06:25;;;;;;;8.20;7.50;;;;;;;21.29;33.17;93854.19;6137061;28;103282;-84
2023/01/10 12:09:39;;;;;;;7.33;6.73;;;;;;;21.29;33.28;93851.53;6136770;28;106623;-83
2023/01/10 12:12:54;;;;;;;8.33;7.63;;;;;;;21.18;33.16;93837.13;6162749;28;102851;-83
2023/01/10 12:16:16;;;;;;;7.37;6.67;;;;;;;21.30;33.53;93853.09;6167246;28;104502;-81
2023/01/10 12:19:19;;;;;;;7.57;6.97;;;;;;;21.28;33.61;93852.63;6160914;28;103950;-83
2023/01/10 12:22:30;;;;;;;7.50;6.90;;;;;;;21.23;33.00;93858.19;6167626;28;102668;-81
2023/01/10 12:25:38;;;;;;;8.20;7.50;;;;;;;21.28;33.55;93868.59;6150256;28;103130;-82
2023/01/10 12:28:44;;;;;;;7.90;7.20;;;;;;;21.13;33.29;93848.72;6146051;28;102648;-83
2023/01/10 12:31:49;;;;;;;7.37;6.77;;;;;;;19.94;33.29;93672.16;6154190;28;103321;-81
2023/01/10 12:35:00;;;;;;;6.87;6.37;;;;;;;21.28;33.42;93873.94;6167786;28;103064;-81
2023/01/10 12:38:18;;;;;;;8.10;7.50;;;;;;;21.24;33.45;93859.72;6168635;28;103885;-80
2023/01/10 12:45:03;;;;;;;8.07;7.37;;;;;;;21.10;33.55;93825.44;6124216;28;105871;-80
2023/01/10 12:48:15;;;;;;;7.40;6.80;;;;;;;21.27;33.51;93851.09;6168702;28;103388;-82
2023/01/10 12:51:24;;;;;;;8.23;7.53;;;;;;;21.06;33.06;93824.56;6169139;28;103108;-85
2023/01/10 12:54:30;;;;;;;7.03;6.53;;;;;;;21.05;33.43;93836.28;6154771;28;104193;-85
2023/01/10 12:57:38;;;;;;;7.50;6.90;;;;;;;21.15;33.54;93851.81;6147844;28;105874;-87
2023/01/10 13:00:48;;;;;;;7.53;6.83;;;;;;;21.28;33.23;93873.94;6146175;28;102944;-85
2023/01/10 13:03:57;;;;;;;7.53;6.93;;;;;;;20.78;33.67;93797.72;6142325;28;104517;-87
2023/01/10 13:07:01;;;;;;;7.80;7.20;;;;;;;21.19;33.48;93862.59;6171407;28;102952;-83
2023/01/10 13:10:08;;;;;;;7.57;6.97;;;;;;;21.28;33.67;93870.50;6169101;28;103491;-85
2023/01/10 13:13:20;;;;;;;7.30;6.73;;;;;;;21.28;33.43;93871.25;6170581;28;104024;-83
2023/01/10 13:16:31;;;;;;;7.80;7.20;;;;;;;20.98;33.72;93819.28;6136262;28;103432;-83
2023/01/10 13:19:34;;;;;;;7.87;7.27;;;;;;;21.04;33.52;93842.69;6145993;28;104617;-83
2023/01/10 13:22:38;;;;;;;7.33;6.73;;;;;;;21.28;33.54;93887.22;6144932;28;104604;-84
2023/01/10 13:25:41;;;;;;;7.40;6.80;;;;;;;21.29;33.62;93877.38;6142186;28;106351;-84
2023/01/10 13:28:56;;;;;;;6.90;6.40;;;;;;;21.13;33.60;93853.25;6139561;28;102816;-83
2023/01/10 13:32:01;;;;;;;7.23;6.50;;;;;;;21.27;33.62;93876.91;6145548;28;104420;-83
2023/01/10 13:35:13;;;;;;;6.63;6.03;;;;;;;21.27;33.33;93879.56;6144695;28;103524;-85
2023/01/10 13:38:19;;;;;;;6.83;6.30;;;;;;;21.26;33.62;93872.69;6137162;28;103000;-83
2023/01/10 13:45:24;;;;;;;7.43;6.80;;;;;;;21.26;33.35;93875.38;6159556;28;103131;-84
2023/01/10 13:48:28;;;;;;;7.30;6.70;;;;;;;21.26;33.36;93880.69;6140729;28;103357;-83
2023/01/10 13:51:35;;;;;;;7.07;6.57;;;;;;;21.26;33.25;93888.66;6140655;28;102807;-83
2023/01/10 13:54:38;;;;;;;6.70;6.20;;;;;;;21.13;33.42;93872.66;6155871;28;105070;-85
2023/01/10 13:57:52;;;;;;;7.00;6.40;;;;;;;21.26;33.55;93889.44;6169211;28;102679;-84
2023/01/10 14:04:23;;;;;;;7.73;7.03;;;;;;;21.07;33.75;93868.66;6151562;28;105118;-85
2023/01/10 14:07:31;;;;;;;6.73;6.20;;;;;;;20.92;33.47;93843.41;6169816;28;104244;-85
2023/01/10 14:10:34;;;;;;;6.73;6.13;;;;;;;21.25;33.78;93887.88;6162534;28;104516;-82
2023/01/10 14:13:38;;;;;;;7.20;6.60;;;;;;;20.90;33.48;93835.00;6136107;28;106234;-82
2023/01/10 14:16:47;;;;;;;7.03;6.43;;;;;;;21.25;33.71;93881.78;6143653;28;103246;-85
2023/01/10 14:20:06;;;;;;;6.90;6.40;;;;;;;21.25;33.42;93884.44;6144108;28;102732;-81
2023/01/10 14:23:20;;;;;;;7.17;6.53;;;;;;;21.24;33.67;93896.97;6137388;28;105969;-84
2023/01/10 14:26:29;;;;;;;6.90;6.33;;;;;;;21.23;33.60;93906.06;6166281;28;106179;-82
2023/01/10 14:29:34;;;;;;;7.00;6.40;;;;;;;20.88;33.68;93839.88;6169468;28;103443;-84
2023/01/10 14:32:42;;;;;;;6.40;5.90;;;;;;;21.23;33.56;93887.44;6144091;28;103469;-80
2023/01/10 14:35:47;;;;;;;6.60;6.00;;;;;;;20.92;33.90;93832.78;6136303;28;103334;-84
2023/01/10 14:38:55;;;;;;;6.70;6.10;;;;;;;21.24;33.28;93881.03;6143144;28;103085;-87
2023/01/10 14:42:01;;;;;;;6.30;5.80;;;;;;;21.17;33.23;93881.56;6162685;28;106144;-86